Time;durP1;ratioP1;P1;durP2;ratioP2;P2;SDS_P1;SDS_P2;PMS_P1;PMS_P2;Temp;Humidity;BMP_temperature;BMP_pressure;BME280_temperature;BME280_humidity;BME280_pressure;Samples;Min_cycle;Max_cycle;Signal;HPM_P1;HPM_P2
2021/03/18 00:01:28;;;;;;;2.95;2.35;;;;;;;0.28;58.16;101433.44;5105456;28;20016;-64
2021/03/18 00:03:53;;;;;;;4.85;2.00;;;;;;;0.28;58.04;101425.75;5105226;28;20049;-65
2021/03/18 00:06:19;;;;;;;6.65;1.98;;;;;;;0.32;57.91;101431.91;5105397;28;20012;-64
2021/03/18 00:08:45;;;;;;;2.25;1.40;;;;;;;0.34;57.78;101427.72;5103813;28;20035;-64
2021/03/18 00:11:14;;;;;;;9.75;1.70;;;;;;;0.36;57.77;101427.03;5105303;28;20044;-65
2021/03/18 00:13:41;;;;;;;3.10;1.30;;;;;;;0.35;57.78;101427.81;5104858;28;20091;-65
2021/03/18 00:16:07;;;;;;;5.97;1.45;;;;;;;0.38;57.79;101426.22;5105119;28;20020;-65
2021/03/18 00:18:42;;;;;;;7.80;1.42;;;;;;;0.39;57.76;101422.84;5105041;28;20107;-64
2021/03/18 00:21:08;;;;;;;3.08;1.20;;;;;;;0.40;57.81;101422.94;5105129;28;20075;-64
2021/03/18 00:23:33;;;;;;;5.15;1.75;;;;;;;0.46;57.66;101428.34;5104484;28;20028;-64
2021/03/18 00:26:00;;;;;;;2.47;1.45;;;;;;;0.44;57.49;101421.41;5104945;28;20020;-64
2021/03/18 00:28:26;;;;;;;2.75;1.40;;;;;;;0.48;57.70;101426.75;5104839;28;20112;-65
2021/03/18 00:30:51;;;;;;;8.65;1.60;;;;;;;0.49;57.60;101423.41;5104916;28;20081;-63
2021/03/18 00:33:17;;;;;;;3.60;1.85;;;;;;;0.47;57.74;101414.78;5104886;28;20035;-64
2021/03/18 00:35:43;;;;;;;5.30;1.63;;;;;;;0.44;57.73;101414.63;5104851;28;20008;-63
2021/03/18 00:38:08;;;;;;;3.42;1.83;;;;;;;0.44;57.65;101429.09;5104135;28;20024;-64
2021/03/18 00:40:37;;;;;;;4.53;1.60;;;;;;;0.42;57.64;101421.34;5104591;28;20437;-65
2021/03/18 00:43:05;;;;;;;3.45;1.40;;;;;;;0.42;57.78;101425.56;5104375;28;20023;-63
2021/03/18 00:45:36;;;;;;;2.67;1.67;;;;;;;0.43;57.78;101423.09;5104333;28;20090;-64
2021/03/18 00:48:04;;;;;;;2.28;1.30;;;;;;;0.46;57.42;101419.81;5104407;28;20024;-63
2021/03/18 00:50:33;;;;;;;2.75;1.42;;;;;;;0.47;57.65;101412.22;5104277;28;20058;-63
2021/03/18 00:52:58;;;;;;;3.05;1.60;;;;;;;0.49;57.63;101412.31;5103926;28;20027;-63
2021/03/18 00:55:26;;;;;;;4.57;1.58;;;;;;;0.50;57.47;101419.16;5104314;28;20057;-64
2021/03/18 00:57:51;;;;;;;1.85;1.17;;;;;;;0.49;57.59;101413.19;5103994;28;20020;-63
2021/03/18 01:00:27;;;;;;;5.03;1.38;;;;;;;0.49;57.56;101415.75;5104378;28;20066;-63
2021/03/18 01:02:54;;;;;;;3.42;1.35;;;;;;;0.52;57.47;101416.69;5104225;28;20047;-62
2021/03/18 01:05:44;;;;;;;5.57;1.80;;;;;;;0.49;57.52;101410.63;5102863;28;20024;-62
2021/03/18 01:08:12;;;;;;;3.40;1.95;;;;;;;0.49;57.47;101418.31;5080662;28;20037;-63
2021/03/18 01:10:44;;;;;;;4.90;2.20;;;;;;;0.47;57.62;101414.78;5081230;28;20036;-64
2021/03/18 01:13:10;;;;;;;7.18;1.55;;;;;;;0.47;57.62;101408.78;5064072;28;20033;-63
2021/03/18 01:15:36;;;;;;;3.30;1.38;;;;;;;0.45;57.76;101408.72;5081176;28;20062;-64
2021/03/18 01:18:05;;;;;;;3.03;1.50;;;;;;;0.48;57.62;101407.97;5081150;28;20028;-63
2021/03/18 01:20:30;;;;;;;3.70;1.45;;;;;;;0.51;57.68;101404.72;5080670;28;20544;-63
2021/03/18 01:22:55;;;;;;;4.72;1.90;;;;;;;0.52;57.51;101414.13;5080458;28;20476;-64
2021/03/18 01:25:21;;;;;;;5.22;1.70;;;;;;;0.52;57.41;101403.91;5080770;28;20153;-64
2021/03/18 01:27:46;;;;;;;3.88;1.48;;;;;;;0.53;57.54;101408.22;5080602;28;20032;-64
2021/03/18 01:30:19;;;;;;;4.82;2.08;;;;;;;0.53;57.47;101410.78;5063955;28;20028;-64
2021/03/18 01:32:45;;;;;;;3.53;1.77;;;;;;;0.51;57.51;101394.50;5080579;28;20076;-63
2021/03/18 01:35:17;;;;;;;6.00;1.63;;;;;;;0.53;57.29;101393.75;5080928;28;20059;-64
2021/03/18 01:37:43;;;;;;;4.60;1.50;;;;;;;0.53;57.48;101398.00;5063645;28;20094;-62
2021/03/18 01:40:10;;;;;;;2.40;1.20;;;;;;;0.53;57.60;101392.91;5080675;28;20031;-64
2021/03/18 01:42:37;;;;;;;2.08;1.10;;;;;;;0.53;57.57;101388.66;5080426;28;20028;-64
2021/03/18 01:45:06;;;;;;;3.08;1.63;;;;;;;0.55;57.35;101388.72;5090858;28;20051;-64
2021/03/18 01:47:32;;;;;;;2.15;1.17;;;;;;;0.57;57.49;101379.47;5103612;28;20102;-64
2021/03/18 01:49:57;;;;;;;2.90;1.40;;;;;;;0.58;57.36;101378.63;5103648;28;20031;-64
2021/03/18 01:52:22;;;;;;;2.08;1.20;;;;;;;0.58;57.17;101374.41;5103344;28;20062;-64
2021/03/18 01:54:48;;;;;;;3.25;1.30;;;;;;;0.57;57.21;101369.25;5103460;28;20083;-64
2021/03/18 01:57:13;;;;;;;3.35;1.23;;;;;;;0.56;57.07;101367.50;5103476;28;20039;-63
2021/03/18 01:59:39;;;;;;;1.20;0.90;;;;;;;0.53;57.10;101363.09;5103472;28;20077;-64
2021/03/18 02:02:04;;;;;;;1.63;1.17;;;;;;;0.54;56.83;101359.75;5103217;28;20097;-63
2021/03/18 02:04:29;;;;;;;3.35;1.20;;;;;;;0.53;57.02;101362.22;5103381;28;20039;-63
2021/03/18 02:06:55;;;;;;;2.47;1.10;;;;;;;0.51;57.14;101358.72;5103417;28;20488;-63
2021/03/18 02:09:20;;;;;;;6.90;1.48;;;;;;;0.54;57.01;101354.63;5102949;28;20031;-63
2021/03/18 02:11:46;;;;;;;3.20;1.10;;;;;;;0.57;57.05;101354.78;5103248;28;20028;-63
2021/03/18 02:14:11;;;;;;;4.30;1.27;;;;;;;0.62;57.02;101357.56;5118786;28;20020;-63
2021/03/18 02:16:42;;;;;;;4.53;1.50;;;;;;;0.68;57.06;101350.19;5103303;28;20464;-63
2021/03/18 02:19:59;;;;;;;2.25;1.60;;;;;;;0.70;56.95;101350.25;5103359;28;20113;-63
2021/03/18 02:22:45;;;;;;;1.48;1.00;;;;;;;0.72;56.80;101353.75;5098426;28;20058;-63
2021/03/18 02:25:23;;;;;;;3.35;1.08;;;;;;;0.71;56.61;101352.00;5103204;28;20110;-62
2021/03/18 02:28:25;;;;;;;2.33;1.00;;;;;;;0.72;56.60;101358.84;5102849;28;20020;-62
2021/03/18 02:30:51;;;;;;;1.65;1.38;;;;;;;0.71;56.63;101352.00;5103052;28;20070;-62
2021/03/18 02:33:43;;;;;;;3.25;1.27;;;;;;;0.70;56.71;101360.47;5106189;28;20019;-62
2021/03/18 02:36:18;;;;;;;4.95;1.50;;;;;;;0.67;56.71;101356.06;5106966;28;20472;-62
2021/03/18 02:38:55;;;;;;;3.10;1.02;;;;;;;0.65;56.71;101352.59;5106614;28;20032;-62
2021/03/18 02:41:23;;;;;;;4.15;1.30;;;;;;;0.61;57.01;101343.00;5106983;28;20146;-63
2021/03/18 02:43:53;;;;;;;6.00;1.50;;;;;;;0.61;56.84;101345.56;5106332;28;20057;-63
2021/03/18 02:46:21;;;;;;;2.80;1.27;;;;;;;0.48;56.82;101328.75;5105318;28;20050;-62
2021/03/18 02:48:48;;;;;;;2.47;1.05;;;;;;;0.55;56.72;101341.06;5106582;28;20125;-63
2021/03/18 02:51:17;;;;;;;1.65;1.45;;;;;;;0.53;56.93;101336.69;5106513;28;20024;-63
2021/03/18 02:53:45;;;;;;;2.75;1.20;;;;;;;0.51;56.96;101343.38;5106378;28;20055;-63
2021/03/18 02:56:15;;;;;;;2.88;1.40;;;;;;;0.39;57.18;101346.22;5106642;28;20016;-66
2021/03/18 02:58:41;;;;;;;4.35;1.40;;;;;;;0.31;57.56;101345.84;5106461;28;20346;-63
2021/03/18 03:01:08;;;;;;;7.13;1.63;;;;;;;0.27;57.59;101343.94;5106571;28;20020;-63
2021/03/18 03:03:35;;;;;;;10.55;2.67;;;;;;;0.21;58.05;101345.38;5106366;28;20689;-62
2021/03/18 03:06:01;;;;;;;9.13;2.40;;;;;;;0.16;58.14;101345.97;5106211;28;20035;-62
2021/03/18 03:08:28;;;;;;;7.93;2.45;;;;;;;0.02;59.01;101351.25;5106215;28;20035;-63
2021/03/18 03:10:57;;;;;;;8.43;2.50;;;;;;;-0.09;58.89;101343.06;5106448;28;20024;-63
2021/03/18 03:13:26;;;;;;;8.85;2.47;;;;;;;-0.22;59.19;101346.66;5105894;28;20460;-63
2021/03/18 03:15:54;;;;;;;7.75;2.33;;;;;;;-0.30;59.31;101340.28;5106223;28;20027;-63
2021/03/18 03:18:20;;;;;;;5.35;2.60;;;;;;;-0.37;59.51;101349.31;5105938;28;20020;-63
2021/03/18 03:20:45;;;;;;;9.30;2.92;;;;;;;-0.44;59.49;101349.78;5106147;28;20518;-63
2021/03/18 03:23:12;;;;;;;5.03;2.38;;;;;;;-0.55;59.92;101337.34;5105533;28;20468;-62
2021/03/18 03:25:38;;;;;;;4.85;2.85;;;;;;;-0.53;59.65;101334.88;5106117;28;20046;-63
2021/03/18 03:28:10;;;;;;;6.05;2.10;;;;;;;-0.58;59.72;101333.75;5105828;28;20028;-62
2021/03/18 03:30:37;;;;;;;3.78;2.03;;;;;;;-0.59;59.77;101339.66;5106055;28;20020;-63
2021/03/18 03:33:04;;;;;;;4.03;1.98;;;;;;;-0.68;59.91;101338.38;5105734;28;20059;-62
2021/03/18 03:35:30;;;;;;;4.90;2.33;;;;;;;-0.69;59.80;101328.09;5121544;28;20031;-63
2021/03/18 03:37:55;;;;;;;6.95;2.40;;;;;;;-0.78;60.51;101321.72;5105418;28;20020;-64
2021/03/18 03:40:20;;;;;;;6.28;2.00;;;;;;;-0.81;60.64;101325.75;5105942;28;20031;-62
2021/03/18 03:42:46;;;;;;;5.05;1.70;;;;;;;-0.86;60.64;101322.97;5121143;28;20049;-63
2021/03/18 03:45:14;;;;;;;4.85;1.77;;;;;;;-0.90;60.75;101323.63;5105476;28;20090;-63
2021/03/18 03:47:41;;;;;;;4.75;2.42;;;;;;;-0.90;60.52;101323.63;5105523;28;20028;-63
2021/03/18 03:50:12;;;;;;;4.75;1.73;;;;;;;-0.94;60.58;101317.47;5105678;28;20075;-63
2021/03/18 03:53:16;;;;;;;2.90;1.70;;;;;;;-0.93;60.32;101313.25;5105611;28;20050;-62
2021/03/18 03:55:46;;;;;;;3.33;1.40;;;;;;;-0.93;60.44;101316.69;5105661;28;20027;-63
2021/03/18 03:58:49;;;;;;;5.78;1.95;;;;;;;-0.94;60.62;101320.00;5105522;28;20357;-63
2021/03/18 04:01:29;;;;;;;6.32;1.60;;;;;;;-0.94;60.52;101329.34;5105548;28;20020;-64
2021/03/18 04:04:02;;;;;;;3.58;1.83;;;;;;;-0.97;61.04;101324.94;5105300;28;20480;-64
2021/03/18 04:06:29;;;;;;;4.70;2.40;;;;;;;-1.00;61.15;101325.69;5105321;28;20030;-62
2021/03/18 04:08:57;;;;;;;7.05;1.90;;;;;;;-1.01;61.03;101326.44;5104941;28;20042;-63
2021/03/18 04:11:24;;;;;;;3.22;1.70;;;;;;;-1.05;61.23;101327.09;5105342;28;20035;-62
2021/03/18 04:13:50;;;;;;;9.98;2.10;;;;;;;-1.06;61.34;101324.47;5105053;28;20028;-62
2021/03/18 04:16:16;;;;;;;3.72;1.52;;;;;;;-1.10;61.07;101320.00;5105336;28;20056;-62
2021/03/18 04:18:43;;;;;;;5.95;2.10;;;;;;;-1.09;61.22;101319.19;5120581;28;20028;-62
2021/03/18 04:21:11;;;;;;;7.03;1.63;;;;;;;-1.10;61.37;101322.56;5104942;28;20035;-62
2021/03/18 04:23:38;;;;;;;5.28;1.67;;;;;;;-1.10;61.33;101325.09;5104799;28;20020;-63
2021/03/18 04:26:04;;;;;;;6.47;2.03;;;;;;;-1.09;61.40;101320.09;5104827;28;20027;-63
2021/03/18 04:28:33;;;;;;;5.70;2.10;;;;;;;-1.13;61.84;101330.88;5104967;28;20369;-63
2021/03/18 04:31:00;;;;;;;6.30;2.38;;;;;;;-1.18;61.87;101319.59;5104908;28;20088;-63
2021/03/18 04:33:27;;;;;;;4.88;2.20;;;;;;;-1.20;61.79;101316.06;5104825;28;20023;-63
2021/03/18 04:35:54;;;;;;;5.65;3.00;;;;;;;-1.30;61.94;101315.56;5104771;28;20016;-63
2021/03/18 04:38:20;;;;;;;6.38;2.25;;;;;;;-1.38;62.45;101319.34;5104495;28;20103;-63
2021/03/18 04:40:46;;;;;;;5.43;2.00;;;;;;;-1.45;62.41;101312.19;5104540;28;20024;-64
2021/03/18 04:43:13;;;;;;;6.43;2.38;;;;;;;-1.51;62.43;101313.59;5104361;28;20474;-64
2021/03/18 04:45:39;;;;;;;3.90;1.98;;;;;;;-1.61;62.57;101308.75;5104563;28;20036;-63
2021/03/18 04:48:06;;;;;;;6.65;2.20;;;;;;;-1.65;62.79;101304.28;5104301;28;20035;-63
2021/03/18 04:50:32;;;;;;;7.72;2.28;;;;;;;-1.67;63.00;101310.97;5120186;28;20039;-63
2021/03/18 04:52:58;;;;;;;5.18;2.42;;;;;;;-1.69;63.09;101307.47;5104015;28;20193;-63
2021/03/18 04:55:23;;;;;;;11.48;2.63;;;;;;;-1.73;63.19;101303.88;5104122;28;20024;-63
2021/03/18 04:58:02;;;;;;;4.85;2.58;;;;;;;-1.73;63.38;101308.06;5104477;28;20028;-64
2021/03/18 05:00:29;;;;;;;6.65;2.70;;;;;;;-1.75;63.39;101306.31;5104215;28;20035;-63
2021/03/18 05:03:01;;;;;;;6.50;2.50;;;;;;;-1.76;63.61;101304.56;5104244;28;20090;-63
2021/03/18 05:05:26;;;;;;;;;;;;;;;-1.76;63.58;101309.66;5104770;28;20028;-63
2021/03/18 05:07:53;;;;;;;8.73;2.90;;;;;;;-1.79;63.38;101299.28;5104006;28;19915;-62
2021/03/18 05:10:22;;;;;;;4.18;2.30;;;;;;;-1.83;63.78;101305.00;5103959;28;20027;-62
2021/03/18 05:12:49;;;;;;;4.35;2.35;;;;;;;-1.82;63.68;101303.34;5103817;28;20035;-63
2021/03/18 05:15:15;;;;;;;4.75;1.92;;;;;;;-1.84;64.11;101297.28;5104266;28;20023;-62
2021/03/18 05:17:42;;;;;;;5.28;2.13;;;;;;;-1.84;64.15;101300.72;5103865;28;20016;-63
2021/03/18 05:20:10;;;;;;;7.35;2.78;;;;;;;-1.81;64.07;101303.44;5104050;28;20051;-63
2021/03/18 05:22:36;;;;;;;4.57;2.65;;;;;;;-1.84;64.17;101290.53;5103809;28;20047;-63
2021/03/18 05:25:03;;;;;;;6.32;3.53;;;;;;;-1.83;64.78;101293.94;5103679;28;20016;-63
2021/03/18 05:27:29;;;;;;;7.68;2.38;;;;;;;-1.78;64.76;101288.34;5103723;28;20016;-63
2021/03/18 05:29:54;;;;;;;9.18;2.20;;;;;;;-1.72;64.84;101284.34;5103944;28;20028;-63
2021/03/18 05:32:20;;;;;;;9.18;4.20;;;;;;;-1.57;65.02;101280.16;5103787;28;20024;-63
2021/03/18 05:34:45;;;;;;;5.05;2.22;;;;;;;-1.35;65.29;101281.31;5103690;28;20039;-63
2021/03/18 05:37:10;;;;;;;7.55;2.20;;;;;;;-1.05;65.14;101291.41;5103882;28;20024;-63
2021/03/18 05:39:36;;;;;;;4.22;2.10;;;;;;;-0.81;65.13;101295.16;5103509;28;20028;-63
2021/03/18 05:42:02;;;;;;;6.07;2.40;;;;;;;-0.61;65.06;101293.69;5103530;28;20026;-63
2021/03/18 05:44:28;;;;;;;7.03;2.20;;;;;;;-0.30;65.27;101302.00;5103040;28;20048;-63
2021/03/18 05:46:53;;;;;;;7.85;1.92;;;;;;;0.16;65.47;101303.41;5103598;28;20039;-63
2021/03/18 05:49:19;;;;;;;3.47;1.60;;;;;;;0.58;64.58;101294.31;5103438;28;20032;-63
2021/03/18 05:51:49;;;;;;;4.85;2.00;;;;;;;0.93;64.28;101292.50;5119179;28;20021;-63
2021/03/18 05:54:19;;;;;;;6.30;1.77;;;;;;;1.35;63.54;101293.50;5103240;28;20040;-63
2021/03/18 05:56:44;;;;;;;7.32;2.00;;;;;;;1.84;63.35;101302.41;5103812;28;20143;-62
2021/03/18 05:59:12;;;;;;;6.03;1.98;;;;;;;2.19;62.23;101294.41;5103424;28;20082;-62
2021/03/18 06:01:39;;;;;;;5.10;2.90;;;;;;;2.47;61.58;101298.09;5103471;28;20020;-62
2021/03/18 06:04:05;;;;;;;3.88;2.05;;;;;;;2.82;61.35;101295.16;5103431;28;20549;-63
2021/03/18 06:06:31;;;;;;;9.88;2.58;;;;;;;3.17;60.77;101297.28;5104101;28;20020;-63
2021/03/18 06:08:56;;;;;;;10.23;2.15;;;;;;;3.49;59.84;101294.09;5106904;28;20038;-62
2021/03/18 06:11:22;;;;;;;5.43;2.10;;;;;;;3.68;58.54;101302.44;5107392;28;20026;-62
2021/03/18 06:13:47;;;;;;;6.72;2.10;;;;;;;3.81;58.02;101308.88;5107050;28;20376;-62
2021/03/18 06:16:13;;;;;;;8.82;1.80;;;;;;;4.06;58.13;101302.88;5107515;28;20024;-63
2021/03/18 06:18:38;;;;;;;9.40;2.00;;;;;;;4.17;56.88;101287.78;5107073;28;20028;-63
2021/03/18 06:21:04;;;;;;;2.85;1.63;;;;;;;4.37;56.83;101299.53;5107241;28;20058;-63
2021/03/18 06:23:32;;;;;;;8.43;2.25;;;;;;;4.29;55.53;101291.59;5106718;28;20028;-62
2021/03/18 06:25:58;;;;;;;11.45;1.80;;;;;;;4.30;55.45;101298.47;5107065;28;20020;-62
2021/03/18 06:28:28;;;;;;;6.93;1.67;;;;;;;4.38;55.60;101291.88;5122732;28;20028;-62
2021/03/18 06:30:56;;;;;;;2.80;1.30;;;;;;;4.57;55.21;101295.91;5107209;28;20038;-63
2021/03/18 06:33:24;;;;;;;7.15;2.25;;;;;;;4.79;54.86;101291.38;5107128;28;20027;-63
2021/03/18 06:35:50;;;;;;;7.88;1.73;;;;;;;5.06;53.44;101292.19;5106977;28;20024;-63
2021/03/18 06:38:16;;;;;;;6.90;1.77;;;;;;;5.26;53.17;101295.31;5106484;28;20063;-62
2021/03/18 06:40:43;;;;;;;5.78;1.70;;;;;;;5.82;53.75;101295.91;5107153;28;20031;-63
2021/03/18 06:43:10;;;;;;;5.97;1.92;;;;;;;6.59;52.19;101290.88;5105413;28;20108;-63
2021/03/18 06:45:42;;;;;;;4.45;1.45;;;;;;;7.23;49.62;101281.88;5105436;28;20028;-63
2021/03/18 06:48:13;;;;;;;3.90;1.45;;;;;;;7.49;48.27;101289.25;5106921;28;20027;-63
2021/03/18 06:50:46;;;;;;;3.90;1.50;;;;;;;7.73;48.04;101289.69;5122673;28;20077;-63
2021/03/18 06:53:28;;;;;;;5.53;1.58;;;;;;;7.98;47.15;101295.25;5122199;28;20028;-63
2021/03/18 06:55:54;;;;;;;7.53;1.38;;;;;;;8.26;46.10;101288.81;5122489;28;20042;-63
2021/03/18 06:58:23;;;;;;;5.80;1.20;;;;;;;8.58;45.60;101291.91;5106643;28;20024;-63
2021/03/18 07:00:52;;;;;;;8.15;1.50;;;;;;;8.94;44.48;101290.66;5106725;28;20020;-63
2021/03/18 07:03:27;;;;;;;6.88;1.50;;;;;;;9.21;44.38;101298.72;5106484;28;20024;-62
2021/03/18 07:05:52;;;;;;;4.90;1.58;;;;;;;9.51;43.17;101305.97;5106420;28;20302;-63
2021/03/18 07:08:24;;;;;;;3.55;1.52;;;;;;;9.50;42.05;101296.47;5106115;28;20012;-62
2021/03/18 07:10:50;;;;;;;2.67;1.58;;;;;;;9.73;41.98;101310.53;5106235;28;20020;-63
2021/03/18 07:13:24;;;;;;;9.15;1.75;;;;;;;10.04;40.54;101309.06;5105824;28;20035;-63
2021/03/18 07:15:51;;;;;;;8.52;1.60;;;;;;;10.42;40.78;101298.97;5106522;28;20080;-63
2021/03/18 07:18:17;;;;;;;4.10;1.75;;;;;;;10.42;38.50;101301.56;5105910;28;20039;-63
2021/03/18 07:21:04;;;;;;;5.45;1.40;;;;;;;10.58;38.85;101293.88;5106446;28;20051;-63
2021/03/18 07:23:38;;;;;;;3.28;1.50;;;;;;;10.87;37.36;101288.84;5121576;28;20103;-63
2021/03/18 07:26:13;;;;;;;5.20;1.52;;;;;;;10.92;38.06;101275.88;5106302;28;20043;-63
2021/03/18 07:28:39;;;;;;;7.47;1.95;;;;;;;11.31;36.23;101278.59;5105948;28;20488;-63
2021/03/18 07:31:05;;;;;;;4.22;1.77;;;;;;;11.34;34.89;101281.19;5106206;28;20036;-63
2021/03/18 07:33:33;;;;;;;9.25;1.90;;;;;;;11.25;35.97;101269.06;5105876;28;20023;-65
2021/03/18 07:35:59;;;;;;;8.20;2.88;;;;;;;11.80;34.76;101271.75;5106056;28;20024;-61
2021/03/18 07:38:25;;;;;;;6.25;2.20;;;;;;;12.21;33.05;101275.22;5105753;28;20890;-61
2021/03/18 07:40:50;;;;;;;8.73;2.30;;;;;;;12.41;33.03;101258.72;5106064;28;20442;-62
2021/03/18 07:43:16;;;;;;;11.02;2.25;;;;;;;12.67;33.20;101256.91;5121384;28;20085;-62
2021/03/18 07:45:43;;;;;;;7.45;2.00;;;;;;;12.91;32.96;101257.69;5105600;28;20040;-64
2021/03/18 07:48:10;;;;;;;12.70;2.30;;;;;;;12.71;31.66;101253.41;5105597;28;20028;-62
2021/03/18 07:50:39;;;;;;;9.23;2.33;;;;;;;12.54;31.91;101256.06;5105609;28;20023;-63
2021/03/18 07:53:07;;;;;;;12.15;2.17;;;;;;;12.31;32.24;101259.59;5105618;28;20048;-62
2021/03/18 07:55:33;;;;;;;7.25;2.42;;;;;;;12.41;32.90;101257.84;5105775;28;20016;-62
2021/03/18 07:57:59;;;;;;;5.85;1.90;;;;;;;12.44;31.96;101258.72;5105488;28;20063;-63
2021/03/18 08:00:25;;;;;;;7.38;1.77;;;;;;;12.38;31.77;101246.56;5105573;28;20028;-63
2021/03/18 08:02:52;;;;;;;9.23;1.67;;;;;;;11.85;30.69;101248.34;5105513;28;20053;-63
2021/03/18 08:05:40;;;;;;;11.27;2.38;;;;;;;11.39;31.86;101255.22;5105385;28;20016;-63
2021/03/18 08:08:09;;;;;;;9.43;1.77;;;;;;;11.31;31.52;101246.56;5105125;28;20111;-63
2021/03/18 08:10:41;;;;;;;16.52;2.65;;;;;;;11.01;31.30;101256.84;5105435;28;20024;-63
2021/03/18 08:13:06;;;;;;;6.70;2.20;;;;;;;10.74;31.77;101251.56;5121014;28;20016;-64
2021/03/18 08:15:38;;;;;;;10.30;2.33;;;;;;;10.45;31.61;101247.06;5105346;28;20042;-63
2021/03/18 08:18:13;;;;;;;9.60;1.92;;;;;;;10.41;32.50;101258.28;5105250;28;20024;-64
2021/03/18 08:20:38;;;;;;;17.25;2.70;;;;;;;10.42;32.13;101247.03;5105177;28;20020;-63
2021/03/18 08:23:22;;;;;;;17.17;3.03;;;;;;;10.34;31.76;101244.41;5105114;28;20034;-63
2021/03/18 08:25:48;;;;;;;12.23;2.03;;;;;;;10.54;32.21;101241.09;5105016;28;20025;-63
2021/03/18 08:28:35;;;;;;;14.57;2.58;;;;;;;10.97;31.81;101236.94;5104852;28;20343;-63
2021/03/18 08:31:01;;;;;;;16.50;2.90;;;;;;;11.19;31.22;101234.38;5104564;28;20027;-63
2021/03/18 08:33:35;;;;;;;12.75;2.45;;;;;;;11.37;30.74;101229.22;5104796;28;20028;-63
2021/03/18 08:36:21;;;;;;;14.60;3.20;;;;;;;11.76;30.69;101223.19;5104806;28;20020;-63
2021/03/18 08:38:49;;;;;;;9.50;2.05;;;;;;;11.82;29.00;101225.78;5104115;28;20023;-63
2021/03/18 08:41:33;;;;;;;6.00;2.28;;;;;;;11.64;28.41;101221.47;5104736;28;20032;-63
2021/03/18 08:44:29;;;;;;;12.15;2.38;;;;;;;11.25;29.13;101224.88;5104397;28;20024;-63
2021/03/18 08:47:00;;;;;;;11.00;2.15;;;;;;;11.11;28.90;101216.19;5104126;28;20048;-65
2021/03/18 08:49:34;;;;;;;3.58;1.50;;;;;;;11.19;29.55;101219.66;5103439;28;20027;-63
2021/03/18 08:52:19;;;;;;;11.35;1.58;;;;;;;11.40;28.45;101218.84;5104550;28;20024;-63
2021/03/18 08:54:49;;;;;;;9.13;1.60;;;;;;;11.36;28.96;101218.81;5104459;28;20109;-64
2021/03/18 08:57:20;;;;;;;3.35;1.08;;;;;;;11.22;26.94;101222.28;5104769;28;20304;-64
2021/03/18 08:59:48;;;;;;;2.80;1.25;;;;;;;10.46;27.22;101227.16;5104502;28;20107;-63
2021/03/18 09:02:16;;;;;;;8.55;1.55;;;;;;;9.98;28.73;101219.94;5104130;28;20032;-63
2021/03/18 09:04:46;;;;;;;4.22;1.45;;;;;;;9.88;29.35;101221.59;5104392;28;20012;-63
2021/03/18 09:07:24;;;;;;;6.20;1.17;;;;;;;10.00;28.46;101210.47;5104366;28;20028;-63
2021/03/18 09:10:00;;;;;;;2.53;0.77;;;;;;;9.94;28.84;101207.78;5103973;28;20024;-63
2021/03/18 09:12:37;;;;;;;6.20;0.90;;;;;;;9.75;29.23;101200.75;5104192;28;20026;-63
2021/03/18 09:15:38;;;;;;;3.50;0.98;;;;;;;10.17;29.75;101205.38;5104109;28;20016;-63
2021/03/18 09:18:21;;;;;;;5.47;1.13;;;;;;;10.04;28.61;101202.72;5096735;28;20066;-63
2021/03/18 09:20:57;;;;;;;;;;;;;;;10.01;29.53;101214.78;5104757;28;20049;-63
2021/03/18 09:23:26;;;;;;;4.80;1.02;;;;;;;9.92;28.62;101213.84;5102444;28;19908;-64
2021/03/18 09:25:57;;;;;;;1.05;0.63;;;;;;;9.88;28.17;101198.25;5104149;28;20380;-63
2021/03/18 09:28:23;;;;;;;4.43;0.80;;;;;;;9.65;28.04;101202.41;5102713;28;20028;-64
2021/03/18 09:30:51;;;;;;;3.30;0.90;;;;;;;9.47;28.86;101210.03;5104051;28;20261;-64
2021/03/18 09:33:18;;;;;;;7.63;0.88;;;;;;;9.33;28.96;101215.94;5103696;28;20246;-64
2021/03/18 09:35:44;;;;;;;4.63;1.10;;;;;;;9.17;29.11;101215.78;5104044;28;20026;-64
2021/03/18 09:38:16;;;;;;;1.95;0.70;;;;;;;9.08;29.36;101210.50;5103742;28;20024;-63
2021/03/18 09:40:41;;;;;;;7.32;0.90;;;;;;;8.95;29.10;101206.03;5103751;28;20032;-65
2021/03/18 09:43:07;;;;;;;3.90;0.90;;;;;;;8.81;29.52;101217.13;5103788;28;20034;-63
2021/03/18 09:45:33;;;;;;;2.70;0.82;;;;;;;8.78;30.37;101211.91;5103581;28;20066;-63
2021/03/18 09:47:59;;;;;;;3.08;0.80;;;;;;;9.10;30.82;101198.47;5103597;28;20532;-63
2021/03/18 09:50:27;;;;;;;5.53;1.25;;;;;;;9.16;30.45;101211.47;5103901;28;20020;-64
2021/03/18 09:53:13;;;;;;;5.75;1.15;;;;;;;9.23;30.83;101201.16;5103556;28;20020;-64
2021/03/18 09:55:39;;;;;;;1.23;0.90;;;;;;;9.14;30.42;101204.53;5103171;28;20024;-63
2021/03/18 09:58:11;;;;;;;2.65;1.20;;;;;;;8.65;31.06;101204.00;5103296;28;20028;-63
2021/03/18 10:00:37;;;;;;;8.88;1.35;;;;;;;8.45;31.76;101208.00;5103908;28;20103;-63
2021/03/18 10:03:03;;;;;;;2.80;1.17;;;;;;;8.34;31.61;101213.03;5103577;28;20085;-63
2021/03/18 10:05:28;;;;;;;3.15;1.10;;;;;;;8.29;32.04;101207.81;5103682;28;20016;-63
2021/03/18 10:07:57;;;;;;;12.38;1.00;;;;;;;8.57;31.74;101212.50;5103216;28;20031;-63
2021/03/18 10:10:23;;;;;;;4.78;1.10;;;;;;;8.87;31.32;101201.66;5101428;28;20277;-62
2021/03/18 10:12:50;;;;;;;7.90;1.20;;;;;;;9.04;31.13;101211.34;5103436;28;20054;-62
2021/03/18 10:15:19;;;;;;;2.88;0.90;;;;;;;9.27;30.53;101210.69;5103010;28;20020;-64
2021/03/18 10:17:45;;;;;;;4.05;1.02;;;;;;;9.46;30.40;101208.28;5103457;28;20111;-63
2021/03/18 10:20:16;;;;;;;3.13;1.23;;;;;;;9.92;29.62;101197.41;5103282;28;20024;-63
2021/03/18 10:22:48;;;;;;;5.78;1.10;;;;;;;10.47;28.70;101198.66;5103236;28;20026;-63
2021/03/18 10:25:15;;;;;;;3.20;0.80;;;;;;;10.76;27.03;101190.13;5103153;28;20077;-64
2021/03/18 10:27:47;;;;;;;1.70;0.93;;;;;;;11.04;27.04;101194.50;5119035;28;20027;-63
2021/03/18 10:30:16;;;;;;;1.15;0.68;;;;;;;11.65;26.34;101181.56;5103246;28;20048;-63
2021/03/18 10:32:59;;;;;;;6.28;2.53;;;;;;;11.98;25.18;101176.34;5103216;28;20028;-63
2021/03/18 10:35:25;;;;;;;1.27;0.80;;;;;;;12.06;25.23;101178.94;5103491;28;20049;-63
2021/03/18 10:37:50;;;;;;;5.07;0.85;;;;;;;12.40;25.02;101186.66;5103164;28;20242;-63
2021/03/18 10:40:28;;;;;;;4.07;1.20;;;;;;;13.05;24.60;101172.44;5102969;28;20057;-65
2021/03/18 10:42:57;;;;;;;6.90;1.23;;;;;;;13.50;24.83;101176.47;5103110;28;20020;-64
2021/03/18 10:45:32;;;;;;;6.88;1.67;;;;;;;13.81;23.63;101157.09;5118788;28;20104;-70
2021/03/18 10:48:07;;;;;;;4.68;1.10;;;;;;;13.76;22.91;101154.53;5101798;28;20020;-78
2021/03/18 10:50:37;;;;;;;4.22;2.13;;;;;;;13.44;22.68;101150.44;5102160;28;20016;-68
2021/03/18 10:53:08;;;;;;;2.83;0.73;;;;;;;13.32;22.54;101152.25;5104566;28;20430;-64
2021/03/18 10:55:38;;;;;;;1.45;0.98;;;;;;;13.14;22.86;101153.28;5106682;28;20012;-65
2021/03/18 10:58:09;;;;;;;5.78;1.23;;;;;;;13.39;22.78;101153.09;5106712;28;20144;-64
2021/03/18 11:00:37;;;;;;;3.53;1.07;;;;;;;13.85;22.94;101146.59;5106700;28;20035;-61
2021/03/18 11:03:14;;;;;;;4.40;1.02;;;;;;;14.38;21.69;101146.03;5106404;28;20043;-68
2021/03/18 11:05:50;;;;;;;1.30;0.77;;;;;;;14.45;21.64;101138.09;5106352;28;20028;-67
2021/03/18 11:08:25;;;;;;;5.35;0.77;;;;;;;14.54;21.41;101131.88;5106596;28;20023;-64
2021/03/18 11:10:52;;;;;;;2.72;0.90;;;;;;;14.63;21.52;101126.56;5122384;28;20026;-66
2021/03/18 11:13:29;;;;;;;10.93;1.80;;;;;;;14.56;21.39;101125.78;5106352;28;20024;-66
2021/03/18 11:15:58;;;;;;;5.75;1.00;;;;;;;15.05;21.64;101120.72;5106669;28;20050;-65
2021/03/18 11:18:44;;;;;;;2.22;0.88;;;;;;;15.72;21.31;101118.72;5106161;28;20046;-67
2021/03/18 11:21:24;;;;;;;3.13;1.00;;;;;;;15.82;21.04;101124.66;5106439;28;20020;-67
2021/03/18 11:23:53;;;;;;;1.65;0.70;;;;;;;16.22;20.75;101117.81;5121503;28;20047;-67
2021/03/18 11:26:23;;;;;;;2.20;0.60;;;;;;;16.18;20.31;101124.00;5105978;28;20385;-68
2021/03/18 11:28:53;;;;;;;2.05;0.73;;;;;;;16.01;20.47;101122.59;5105893;28;20031;-66
2021/03/18 11:31:20;;;;;;;3.45;0.80;;;;;;;15.79;19.88;101107.28;5106136;28;20028;-65
2021/03/18 11:33:45;;;;;;;3.53;1.02;;;;;;;15.50;20.17;101108.66;5105809;28;20100;-65
2021/03/18 11:36:11;;;;;;;1.17;0.70;;;;;;;14.72;20.76;101120.31;5105987;28;20085;-64
2021/03/18 11:38:37;;;;;;;3.15;1.30;;;;;;;14.10;21.50;101108.94;5105643;28;20024;-64
2021/03/18 11:41:03;;;;;;;1.75;1.20;;;;;;;14.03;22.42;101107.25;5105935;28;20050;-64